Time;durP1;ratioP1;P1;durP2;ratioP2;P2;SDS_P1;SDS_P2;PMS_P1;PMS_P2;Temp;Humidity;BMP_temperature;BMP_pressure;BME280_temperature;BME280_humidity;BME280_pressure;Samples;Min_cycle;Max_cycle;Signal;HPM_P1;HPM_P2
2023/07/31 00:06:40;;;;;;;5.2;2.4;;;;;;;17.13;82.3;;;;;
2023/07/31 00:17:39;;;;;;;5.2;2.4;;;;;;;17.05;83.34;;;;;
2023/07/31 00:28:39;;;;;;;4.4;2.5;;;;;;;17;84.2;;;;;
2023/07/31 00:39:39;;;;;;;4.4;2.5;;;;;;;17.02;83.49;;;;;
2023/07/31 00:49:39;;;;;;;4.4;2.5;;;;;;;17.05;83.6;;;;;
2023/07/31 00:59:39;;;;;;;4.2;2.5;;;;;;;17.15;83.68;;;;;
2023/07/31 01:10:39;;;;;;;4.2;2.5;;;;;;;17.32;83.71;;;;;
2023/07/31 01:20:39;;;;;;;4.2;2.5;;;;;;;17.48;84.01;;;;;
2023/07/31 01:30:39;;;;;;;4.7;2.5;;;;;;;17.64;83.48;;;;;
2023/07/31 01:41:39;;;;;;;4.7;2.5;;;;;;;17.76;83.63;;;;;
2023/07/31 01:52:39;;;;;;;4.7;2.5;;;;;;;17.84;83.79;;;;;
2023/07/31 02:03:39;;;;;;;8.2;3.8;;;;;;;17.94;83.72;;;;;
2023/07/31 02:13:39;;;;;;;8.2;3.8;;;;;;;17.96;83.77;;;;;
2023/07/31 02:23:39;;;;;;;8.2;3.8;;;;;;;17.97;83.73;;;;;
2023/07/31 02:34:39;;;;;;;6.3;3.4;;;;;;;17.94;83.92;;;;;
2023/07/31 02:45:39;;;;;;;6.3;3.4;;;;;;;17.97;82.94;;;;;
2023/07/31 02:56:39;;;;;;;6.7;3;;;;;;;17.92;82.48;;;;;
2023/07/31 03:06:39;;;;;;;6.7;3;;;;;;;17.81;82.41;;;;;
2023/07/31 03:17:39;;;;;;;6.7;3;;;;;;;17.62;82.89;;;;;
2023/07/31 03:28:39;;;;;;;5.3;2.6;;;;;;;17.67;82.33;;;;;
2023/07/31 03:38:39;;;;;;;5.3;2.6;;;;;;;17.73;82.44;;;;;
2023/07/31 03:48:39;;;;;;;5.3;2.6;;;;;;;17.77;82.3;;;;;
2023/07/31 03:59:39;;;;;;;4.5;2.5;;;;;;;17.72;82.04;;;;;
2023/07/31 04:09:39;;;;;;;4.5;2.5;;;;;;;17.82;81.82;;;;;
2023/07/31 04:20:39;;;;;;;4.5;2.5;;;;;;;17.95;81.57;;;;;
2023/07/31 04:31:39;;;;;;;5.2;2.6;;;;;;;17.78;81.7;;;;;
2023/07/31 04:41:39;;;;;;;5.2;2.6;;;;;;;18.02;81.68;;;;;
2023/07/31 04:52:39;;;;;;;5.2;2.6;;;;;;;18.28;80.23;;;;;
2023/07/31 05:03:39;;;;;;;6.6;3.3;;;;;;;18.3;80.35;;;;;
2023/07/31 05:13:39;;;;;;;6.6;3.3;;;;;;;18.39;79.86;;;;;
2023/07/31 05:24:39;;;;;;;6.6;3.3;;;;;;;18.34;79.94;;;;;
2023/07/31 05:34:39;;;;;;;6.7;3.4;;;;;;;18.31;79.11;;;;;
2023/07/31 05:44:39;;;;;;;6.7;3.4;;;;;;;18.44;79.42;;;;;
2023/07/31 05:55:39;;;;;;;5.5;3;;;;;;;18.3;79.21;;;;;
2023/07/31 06:05:39;;;;;;;5.5;3;;;;;;;18.1;79.25;;;;;
2023/07/31 06:16:39;;;;;;;5.5;3;;;;;;;18.03;79.88;;;;;
2023/07/31 06:26:39;;;;;;;5.8;4.1;;;;;;;18.41;79.37;;;;;
2023/07/31 06:36:39;;;;;;;5.8;4.1;;;;;;;18.67;77.09;;;;;
2023/07/31 06:46:39;;;;;;;5.8;4.1;;;;;;;18.92;77.22;;;;;
2023/07/31 06:57:39;;;;;;;7.4;4.1;;;;;;;19.15;75.92;;;;;
2023/07/31 07:07:39;;;;;;;7.4;4.1;;;;;;;19.82;72.64;;;;;
2023/07/31 07:17:40;;;;;;;7.4;4.1;;;;;;;20.15;72.11;;;;;
2023/07/31 07:28:39;;;;;;;6.5;3.1;;;;;;;20.44;69.82;;;;;
2023/07/31 07:39:39;;;;;;;6.5;3.1;;;;;;;20.42;69.11;;;;;
2023/07/31 07:50:39;;;;;;;6.5;3.1;;;;;;;20.4;68.59;;;;;
2023/07/31 08:01:40;;;;;;;6.1;3.1;;;;;;;20.96;68.72;;;;;
2023/07/31 08:11:40;;;;;;;6.1;3.1;;;;;;;21.05;66.18;;;;;
2023/07/31 08:22:40;;;;;;;6.1;3.1;;;;;;;21.05;67.47;;;;;
2023/07/31 08:32:39;;;;;;;5.1;3;;;;;;;21.37;64.83;;;;;
2023/07/31 08:43:39;;;;;;;5.1;3;;;;;;;21.61;63.83;;;;;
2023/07/31 08:54:40;;;;;;;5.1;3;;;;;;;21.45;63.51;;;;;
2023/07/31 09:05:39;;;;;;;4.9;2.7;;;;;;;21.89;61.68;;;;;
2023/07/31 09:16:39;;;;;;;4.9;2.7;;;;;;;21.87;61.29;;;;;
2023/07/31 09:26:40;;;;;;;6;2.5;;;;;;;22.06;62.9;;;;;
2023/07/31 09:37:40;;;;;;;6;2.5;;;;;;;21.77;61.61;;;;;
2023/07/31 09:48:39;;;;;;;6;2.5;;;;;;;21.98;62.13;;;;;
2023/07/31 09:58:40;;;;;;;4.9;2.6;;;;;;;22.16;59.79;;;;;
2023/07/31 10:09:40;;;;;;;4.9;2.6;;;;;;;22.51;61.34;;;;;
2023/07/31 10:20:40;;;;;;;4.9;2.6;;;;;;;22.58;56.88;;;;;
2023/07/31 10:30:40;;;;;;;5.6;2.4;;;;;;;22.73;57.83;;;;;
2023/07/31 10:41:40;;;;;;;5.6;2.4;;;;;;;23.19;56.46;;;;;
2023/07/31 10:51:40;;;;;;;5.6;2.4;;;;;;;23.36;54.83;;;;;
2023/07/31 11:02:40;;;;;;;4.3;2.2;;;;;;;23.79;52.84;;;;;
2023/07/31 11:13:40;;;;;;;4.3;2.2;;;;;;;24.19;51.82;;;;;
2023/07/31 11:23:40;;;;;;;4.3;2.2;;;;;;;24.69;49.56;;;;;
2023/07/31 11:34:40;;;;;;;4.9;2.1;;;;;;;24.57;51.42;;;;;
2023/07/31 11:44:41;;;;;;;4.9;2.1;;;;;;;25.36;50.83;;;;;
2023/07/31 11:54:40;;;;;;;4.9;2.1;;;;;;;25.34;48.03;;;;;
2023/07/31 12:04:40;;;;;;;5.8;2.3;;;;;;;24.89;48.63;;;;;
2023/07/31 12:15:40;;;;;;;5.8;2.3;;;;;;;24.91;46.96;;;;;
2023/07/31 12:26:40;;;;;;;4.4;1.6;;;;;;;25.15;41.43;;;;;
2023/07/31 12:37:40;;;;;;;4.4;1.6;;;;;;;25.61;43.39;;;;;
2023/07/31 12:47:40;;;;;;;4.4;1.6;;;;;;;25.78;41.41;;;;;
2023/07/31 12:57:40;;;;;;;4.6;1.7;;;;;;;25.88;44.82;;;;;
2023/07/31 13:08:40;;;;;;;4.6;1.7;;;;;;;25.69;44.64;;;;;
2023/07/31 13:19:40;;;;;;;4.6;1.7;;;;;;;25.85;44.67;;;;;
2023/07/31 13:30:40;;;;;;;4;1.7;;;;;;;25.96;43.31;;;;;
2023/07/31 13:41:40;;;;;;;4;1.7;;;;;;;25.83;43.38;;;;;
2023/07/31 13:51:40;;;;;;;4;1.7;;;;;;;26.54;44.71;;;;;
2023/07/31 14:01:40;;;;;;;7;2.2;;;;;;;26.34;42.75;;;;;
2023/07/31 14:11:40;;;;;;;7;2.2;;;;;;;26.54;42.03;;;;;
2023/07/31 14:22:40;;;;;;;7;2.2;;;;;;;26.9;41.05;;;;;
2023/07/31 14:32:40;;;;;;;4.2;1.9;;;;;;;27.1;41;;;;;
2023/07/31 14:42:40;;;;;;;4.2;1.9;;;;;;;27.64;41.92;;;;;
2023/07/31 14:52:40;;;;;;;4.2;1.9;;;;;;;28.23;40.11;;;;;
2023/07/31 15:03:40;;;;;;;4;2.2;;;;;;;27.44;39.71;;;;;
2023/07/31 15:14:40;;;;;;;4;2.2;;;;;;;27.25;40.73;;;;;
2023/07/31 15:25:40;;;;;;;4;2.2;;;;;;;29.38;36.68;;;;;
2023/07/31 15:36:40;;;;;;;5;2;;;;;;;29.17;38.16;;;;;
2023/07/31 15:46:40;;;;;;;5;2;;;;;;;28.97;37.21;;;;;
2023/07/31 15:57:40;;;;;;;4;1.8;;;;;;;29.16;37.22;;;;;
2023/07/31 16:07:40;;;;;;;4;1.8;;;;;;;27.83;39.76;;;;;
2023/07/31 16:18:40;;;;;;;4;1.8;;;;;;;27.23;41.73;;;;;
2023/07/31 16:29:44;;;;;;;4.3;1.8;;;;;;;25.94;44.49;;;;;
2023/07/31 16:39:42;;;;;;;4.3;1.8;;;;;;;25.02;46.4;;;;;
2023/07/31 16:50:40;;;;;;;4.3;1.8;;;;;;;24.61;49.39;;;;;
2023/07/31 17:01:40;;;;;;;4.4;2.1;;;;;;;24.44;49.31;;;;;
2023/07/31 17:12:40;;;;;;;4.4;2.1;;;;;;;24.61;50.19;;;;;
2023/07/31 17:22:40;;;;;;;4.4;2.1;;;;;;;25.21;49.14;;;;;
2023/07/31 17:33:40;;;;;;;5.7;1.8;;;;;;;24.35;51.24;;;;;
2023/07/31 17:43:40;;;;;;;5.7;1.8;;;;;;;23.85;53.21;;;;;
2023/07/31 17:53:40;;;;;;;5.7;1.8;;;;;;;23.11;54.83;;;;;
2023/07/31 18:04:40;;;;;;;4.1;1.9;;;;;;;22.27;56.26;;;;;
2023/07/31 18:15:40;;;;;;;4.1;1.9;;;;;;;21.67;57.92;;;;;
2023/07/31 18:25:40;;;;;;;4.1;1.9;;;;;;;21.04;60.66;;;;;
2023/07/31 18:35:40;;;;;;;7.6;2.7;;;;;;;20.44;63.4;;;;;
2023/07/31 18:46:40;;;;;;;7.6;2.7;;;;;;;19.92;65.52;;;;;
2023/07/31 18:57:41;;;;;;;7.3;4.3;;;;;;;19.5;66.54;;;;;
2023/07/31 19:07:40;;;;;;;7.3;4.3;;;;;;;19.26;65.98;;;;;
2023/07/31 19:18:40;;;;;;;7.3;4.3;;;;;;;18.77;67.88;;;;;
2023/07/31 19:29:40;;;;;;;15.4;12.3;;;;;;;18.24;69.51;;;;;
2023/07/31 19:39:40;;;;;;;15.4;12.3;;;;;;;17.98;72.67;;;;;
2023/07/31 19:50:40;;;;;;;15.4;12.3;;;;;;;17.79;73.45;;;;;
2023/07/31 20:00:40;;;;;;;12.2;6;;;;;;;17.67;72.89;;;;;
2023/07/31 20:10:40;;;;;;;12.2;6;;;;;;;17.4;74.22;;;;;
2023/07/31 20:20:40;;;;;;;12.2;6;;;;;;;17.49;72.3;;;;;
2023/07/31 20:31:40;;;;;;;8.8;5.4;;;;;;;17.28;72.92;;;;;
2023/07/31 20:42:40;;;;;;;8.8;5.4;;;;;;;17.15;74.02;;;;;
2023/07/31 20:52:40;;;;;;;8.8;5.4;;;;;;;17.08;73.91;;;;;
2023/07/31 21:02:41;;;;;;;5.4;2.5;;;;;;;17.05;73.99;;;;;
2023/07/31 21:13:40;;;;;;;5.4;2.5;;;;;;;16.88;74.98;;;;;
2023/07/31 21:23:40;;;;;;;5.4;2.5;;;;;;;16.66;75.98;;;;;
2023/07/31 21:34:41;;;;;;;6.5;3.5;;;;;;;16.49;76.97;;;;;
2023/07/31 21:45:40;;;;;;;6.5;3.5;;;;;;;16.17;77.44;;;;;
2023/07/31 21:56:40;;;;;;;6.3;3.3;;;;;;;16.09;77.53;;;;;
2023/07/31 22:07:40;;;;;;;6.3;3.3;;;;;;;15.91;78.33;;;;;
2023/07/31 22:17:40;;;;;;;6.3;3.3;;;;;;;15.77;78.44;;;;;
2023/07/31 22:27:40;;;;;;;7.2;3.2;;;;;;;15.65;79.22;;;;;
2023/07/31 22:38:40;;;;;;;7.2;3.2;;;;;;;15.55;80.54;;;;;
2023/07/31 22:49:40;;;;;;;7.2;3.2;;;;;;;15.47;81.4;;;;;
2023/07/31 22:59:40;;;;;;;8.6;5.2;;;;;;;15.5;84.08;;;;;
2023/07/31 23:09:42;;;;;;;8.6;5.2;;;;;;;15.39;83.53;;;;;
2023/07/31 23:20:40;;;;;;;8.6;5.2;;;;;;;15.37;82.93;;;;;
2023/07/31 23:31:40;;;;;;;9.9;6.3;;;;;;;15.17;84.43;;;;;
2023/07/31 23:41:40;;;;;;;9.9;6.3;;;;;;;15.18;84.01;;;;;
2023/07/31 23:52:40;;;;;;;9.9;6.3;;;;;;;15.09;84.11;;;;;
